createdAt,value
2022-11-19T00:00:53.459Z,88.93
2022-11-19T00:01:59.912Z,89.27
2022-11-19T00:03:01.483Z,89.17
2022-11-19T00:04:07.780Z,89.23
2022-11-19T00:05:09.413Z,88.69
2022-11-19T00:06:14.220Z,89.13
2022-11-19T00:07:15.727Z,89.16
2022-11-19T00:08:20.728Z,89.02
2022-11-19T00:09:22.307Z,88.92
2022-11-19T00:10:25.783Z,88.90
2022-11-19T00:11:46.965Z,88.88
2022-11-19T00:12:54.508Z,88.51
2022-11-19T00:13:56.984Z,88.55
2022-11-19T00:14:58.490Z,88.77
2022-11-19T00:16:06.215Z,88.72
2022-11-19T00:17:09.207Z,88.69
2022-11-19T00:18:11.677Z,88.88
2022-11-19T00:19:13.250Z,88.52
2022-11-19T00:20:17.486Z,88.62
2022-11-19T00:21:19.006Z,88.77
2022-11-19T00:22:21.464Z,88.64
2022-11-19T00:23:22.995Z,88.80
2022-11-19T00:24:28.650Z,88.70
2022-11-19T00:25:30.597Z,88.55
2022-11-19T00:26:33.300Z,88.47
2022-11-19T00:27:34.849Z,88.67
2022-11-19T00:28:38.070Z,88.18
2022-11-19T00:29:39.549Z,88.39
2022-11-19T00:30:47.981Z,88.29
2022-11-19T00:31:50.212Z,88.13
2022-11-19T00:32:54.012Z,88.23
2022-11-19T00:33:55.639Z,88.34
2022-11-19T00:34:58.144Z,88.45
2022-11-19T00:36:01.168Z,88.20
2022-11-19T00:37:04.095Z,88.08
2022-11-19T00:38:06.122Z,87.98
2022-11-19T00:39:10.298Z,88.25
2022-11-19T00:40:12.699Z,88.01
2022-11-19T00:41:15.149Z,88.15
2022-11-19T00:42:16.659Z,88.06
2022-11-19T00:43:36.910Z,87.83
2022-11-19T00:44:39.371Z,87.83
2022-11-19T00:45:41.170Z,87.85
2022-11-19T00:46:43.630Z,87.79
2022-11-19T00:47:45.106Z,88.04
2022-11-19T00:48:50.176Z,87.71
2022-11-19T00:49:51.738Z,87.79
2022-11-19T00:50:54.198Z,88.00
2022-11-19T00:51:55.752Z,87.85
2022-11-19T00:52:59.442Z,87.73
2022-11-19T00:54:00.954Z,87.72
2022-11-19T00:55:03.453Z,87.78
2022-11-19T00:56:07.466Z,87.79
2022-11-19T00:57:09.926Z,87.49
2022-11-19T00:58:11.428Z,87.70
2022-11-19T00:59:13.915Z,87.65
2022-11-19T01:00:16.723Z,87.68
2022-11-19T01:01:21.120Z,87.39
2022-11-19T01:02:22.622Z,87.54
2022-11-19T01:03:25.546Z,87.50
2022-11-19T01:04:29.487Z,87.42
2022-11-19T01:05:31.146Z,87.40
2022-11-19T01:06:34.061Z,87.29
2022-11-19T01:07:35.579Z,87.41
2022-11-19T01:08:38.739Z,87.12
2022-11-19T01:09:40.237Z,87.17
2022-11-19T01:10:43.549Z,87.28
2022-11-19T01:11:46.109Z,87.37
2022-11-19T01:13:06.168Z,87.16
2022-11-19T01:14:09.032Z,86.95
2022-11-19T01:15:10.671Z,86.81
2022-11-19T01:16:15.338Z,87.11
2022-11-19T01:17:16.832Z,86.83
2022-11-19T01:18:19.947Z,86.75
2022-11-19T01:19:22.655Z,86.70
2022-11-19T01:20:25.908Z,86.71
2022-11-19T01:21:30.934Z,86.87
2022-11-19T01:22:32.489Z,86.94
2022-11-19T01:23:35.312Z,86.60
2022-11-19T01:24:36.849Z,86.79
2022-11-19T01:25:39.614Z,87.07
2022-11-19T01:26:45.822Z,86.49
2022-11-19T01:27:47.881Z,86.58
2022-11-19T01:28:51.125Z,86.89
2022-11-19T01:29:52.684Z,86.44
2022-11-19T01:30:55.198Z,86.53
2022-11-19T01:31:57.663Z,86.44
2022-11-19T01:32:59.220Z,86.36
2022-11-19T01:34:01.778Z,86.20
2022-11-19T01:35:03.868Z,86.40
2022-11-19T01:36:11.548Z,86.44
2022-11-19T01:37:13.064Z,86.72
2022-11-19T01:38:15.543Z,86.27
2022-11-19T01:39:17.350Z,86.08
2022-11-19T01:40:20.188Z,85.84
2022-11-19T01:41:24.849Z,86.26
2022-11-19T01:42:47.812Z,86.16
2022-11-19T01:43:52.151Z,86.04
2022-11-19T01:45:01.005Z,86.18
2022-11-19T01:46:03.486Z,86.36
2022-11-19T01:47:05.094Z,85.84
2022-11-19T01:48:13.210Z,85.99
2022-11-19T01:49:18.935Z,86.02
2022-11-19T01:50:21.463Z,85.73
2022-11-19T01:51:29.115Z,85.94
2022-11-19T01:52:30.793Z,85.65
2022-11-19T01:53:35.690Z,85.61
2022-11-19T01:54:44.535Z,85.58
2022-11-19T01:55:47.522Z,85.59
2022-11-19T01:56:50.064Z,85.90
2022-11-19T01:57:55.337Z,85.67
2022-11-19T01:59:01.172Z,85.69
2022-11-19T02:00:03.203Z,85.73
2022-11-19T02:01:10.589Z,85.64
2022-11-19T02:02:12.761Z,85.77
2022-11-19T02:03:16.457Z,85.37
2022-11-19T02:04:19.049Z,85.55
2022-11-19T02:05:21.931Z,85.67
2022-11-19T02:06:24.834Z,85.30
2022-11-19T02:07:29.340Z,85.19
2022-11-19T02:08:41.919Z,85.07
2022-11-19T02:09:45.259Z,85.22
2022-11-19T02:11:00.491Z,85.31
2022-11-19T02:12:14.868Z,85.05
2022-11-19T02:13:26.958Z,85.18
2022-11-19T02:14:50.512Z,85.36
2022-11-19T02:16:03.877Z,84.92
2022-11-19T02:17:16.306Z,84.99
2022-11-19T02:18:40.018Z,85.17
2022-11-19T02:20:20.604Z,84.63
2022-11-19T02:21:33.513Z,84.77
2022-11-19T02:22:56.441Z,84.50
2022-11-19T02:24:25.256Z,84.82
2022-11-19T02:25:44.648Z,84.76
2022-11-19T02:27:20.343Z,84.81
2022-11-19T02:28:31.994Z,84.50
2022-11-19T02:30:02.410Z,84.22
2022-11-19T02:31:12.563Z,84.54
2022-11-19T02:32:16.416Z,84.68
2022-11-19T02:33:26.552Z,84.39
2022-11-19T02:34:33.631Z,84.63
2022-11-19T02:35:50.572Z,84.58
2022-11-19T02:36:59.195Z,84.27
2022-11-19T02:38:05.915Z,84.42
2022-11-19T02:39:15.727Z,84.18
2022-11-19T02:40:24.260Z,84.11
2022-11-19T02:41:34.373Z,84.39
2022-11-19T02:42:45.221Z,84.10
2022-11-19T02:43:47.966Z,84.23
2022-11-19T02:44:59.678Z,84.18
2022-11-19T02:46:06.798Z,84.01
2022-11-19T02:47:13.587Z,84.03
2022-11-19T02:48:21.706Z,84.02
2022-11-19T02:49:29.624Z,83.91
2022-11-19T02:50:34.767Z,83.84
2022-11-19T02:51:37.340Z,83.76
2022-11-19T02:52:39.518Z,83.44
2022-11-19T02:53:42.269Z,83.67
2022-11-19T02:54:43.984Z,83.78
2022-11-19T02:56:08.548Z,83.62
2022-11-19T02:57:11.751Z,83.51
2022-11-19T02:58:32.708Z,83.68
2022-11-19T02:59:58.812Z,83.67
2022-11-19T03:01:21.335Z,83.71
2022-11-19T03:02:46.158Z,83.61
2022-11-19T03:04:07.542Z,83.69
2022-11-19T03:05:13.799Z,83.43
2022-11-19T03:06:18.847Z,83.45
2022-11-19T03:07:21.657Z,83.24
2022-11-19T03:08:24.682Z,83.59
2022-11-19T03:09:27.472Z,83.55
2022-11-19T03:10:43.226Z,83.64
2022-11-19T03:11:52.006Z,83.58
2022-11-19T03:12:59.632Z,83.56
2022-11-19T03:14:32.496Z,83.70
2022-11-19T03:16:12.276Z,83.30
2022-11-19T03:17:21.367Z,83.28
2022-11-19T03:18:32.012Z,83.48
2022-11-19T03:19:37.177Z,83.26
2022-11-19T03:20:42.518Z,83.58
2022-11-19T03:21:49.971Z,83.31
2022-11-19T03:22:55.734Z,83.11
2022-11-19T03:24:02.564Z,83.19
2022-11-19T03:25:10.701Z,83.46
2022-11-19T03:26:20.252Z,83.50
2022-11-19T03:27:26.847Z,83.40
2022-11-19T03:28:35.732Z,83.07
2022-11-19T03:29:42.484Z,83.28
2022-11-19T03:30:45.945Z,82.79
2022-11-19T03:31:52.495Z,83.24
2022-11-19T03:33:02.007Z,83.19
2022-11-19T03:34:10.514Z,83.01
2022-11-19T03:35:17.260Z,82.70
2022-11-19T03:36:24.217Z,82.80
2022-11-19T03:37:29.342Z,82.70
2022-11-19T03:38:35.822Z,82.96
2022-11-19T03:39:38.681Z,82.52
2022-11-19T03:40:43.118Z,82.61
2022-11-19T03:41:47.896Z,82.36
2022-11-19T03:42:53.963Z,82.21
2022-11-19T03:44:00.487Z,82.18
2022-11-19T03:45:08.280Z,82.67
2022-11-19T03:46:14.605Z,82.12
2022-11-19T03:47:20.958Z,82.39
2022-11-19T03:48:25.811Z,82.48
2022-11-19T03:49:32.880Z,82.48
2022-11-19T03:50:40.784Z,82.15
2022-11-19T03:51:49.325Z,82.38
2022-11-19T03:52:51.134Z,82.13
2022-11-19T03:53:54.268Z,82.50
2022-11-19T03:54:56.808Z,82.47
2022-11-19T03:56:02.011Z,82.26
2022-11-19T03:57:06.619Z,82.32
2022-11-19T03:58:10.631Z,81.98
2022-11-19T03:59:13.798Z,82.18
2022-11-19T04:00:16.564Z,82.10
2022-11-19T04:01:19.146Z,81.87
2022-11-19T04:02:21.180Z,82.19
2022-11-19T04:03:25.023Z,82.13
2022-11-19T04:04:36.817Z,81.90
2022-11-19T04:05:39.322Z,81.88
2022-11-19T04:06:40.847Z,82.23
2022-11-19T04:07:43.348Z,82.07
2022-11-19T04:08:44.819Z,81.91
2022-11-19T04:09:47.441Z,81.38
2022-11-19T04:10:49.018Z,81.90
2022-11-19T04:12:52.021Z,81.43
2022-11-19T04:13:54.522Z,81.59
2022-11-19T04:14:57.014Z,81.29
2022-11-19T04:15:58.525Z,81.44
2022-11-19T04:17:01.196Z,81.60
2022-11-19T04:18:02.701Z,81.38
2022-11-19T04:19:06.875Z,81.35
2022-11-19T04:20:10.432Z,80.88
2022-11-19T04:21:11.944Z,81.33
2022-11-19T04:22:14.560Z,81.01
2022-11-19T04:23:16.046Z,81.26
2022-11-19T04:24:18.818Z,81.32
2022-11-19T04:25:20.399Z,81.26
2022-11-19T04:26:22.960Z,80.75
2022-11-19T04:27:24.444Z,80.86
2022-11-19T04:28:26.892Z,81.02
2022-11-19T04:29:28.483Z,80.90
2022-11-19T04:30:30.982Z,80.75
2022-11-19T04:31:33.163Z,80.81
2022-11-19T04:32:35.641Z,80.43
2022-11-19T04:33:37.152Z,80.10
2022-11-19T04:34:40.944Z,80.73
2022-11-19T04:35:44.690Z,80.21
2022-11-19T04:36:47.611Z,80.31
2022-11-19T04:37:49.295Z,80.45
2022-11-19T04:38:53.970Z,80.31
2022-11-19T04:39:55.461Z,79.98
2022-11-19T04:40:58.185Z,80.23
2022-11-19T04:41:59.718Z,79.73
2022-11-19T04:43:02.247Z,79.75
2022-11-19T04:44:04.158Z,79.97
2022-11-19T04:45:07.691Z,80.01
2022-11-19T04:46:09.273Z,79.48
2022-11-19T04:47:11.827Z,79.46
2022-11-19T04:48:13.353Z,79.69
2022-11-19T04:49:15.967Z,79.69
2022-11-19T04:50:18.843Z,79.71
2022-11-19T04:51:21.355Z,79.62
2022-11-19T04:52:22.874Z,79.14
2022-11-19T04:53:25.370Z,79.06
2022-11-19T04:54:26.979Z,79.19
2022-11-19T04:55:29.425Z,78.80
2022-11-19T04:56:30.927Z,79.02
2022-11-19T04:57:33.417Z,79.32
2022-11-19T04:58:35.325Z,78.87
2022-11-19T04:59:37.804Z,79.00
2022-11-19T05:00:39.355Z,78.81
2022-11-19T05:01:42.839Z,78.63
2022-11-19T05:02:44.488Z,78.66
2022-11-19T05:03:47.240Z,78.54
2022-11-19T05:04:48.750Z,78.65
2022-11-19T05:05:52.680Z,78.83
2022-11-19T05:06:54.341Z,78.52
2022-11-19T05:07:56.910Z,78.55
2022-11-19T05:08:58.468Z,78.88
2022-11-19T05:10:00.961Z,78.77
2022-11-19T05:11:02.500Z,78.81
2022-11-19T05:12:05.666Z,78.78
2022-11-19T05:13:07.154Z,78.31
2022-11-19T05:14:09.839Z,78.67
2022-11-19T05:15:11.557Z,78.43
2022-11-19T05:16:14.140Z,78.62
2022-11-19T05:17:15.668Z,78.18
2022-11-19T05:18:18.131Z,78.68
2022-11-19T05:19:19.889Z,78.71
2022-11-19T05:20:22.655Z,78.47
2022-11-19T05:21:25.516Z,78.35
2022-11-19T05:22:28.014Z,78.79
2022-11-19T05:23:29.536Z,78.77
2022-11-19T05:24:32.091Z,78.50
2022-11-19T05:25:33.629Z,78.76
2022-11-19T05:26:36.243Z,78.81
2022-11-19T05:27:37.782Z,78.52
2022-11-19T05:28:40.378Z,78.75
2022-11-19T05:29:41.970Z,78.67
2022-11-19T05:30:44.555Z,78.76
2022-11-19T05:31:46.037Z,78.71
2022-11-19T05:32:48.871Z,78.57
2022-11-19T05:33:50.386Z,78.58
2022-11-19T05:34:52.870Z,78.51
2022-11-19T05:35:54.392Z,78.46
2022-11-19T05:36:58.419Z,78.24
2022-11-19T05:38:00.141Z,78.14
2022-11-19T05:39:02.661Z,78.31
2022-11-19T05:40:05.481Z,78.34
2022-11-19T05:41:08.000Z,78.36
2022-11-19T05:42:09.518Z,78.44
2022-11-19T05:43:12.011Z,78.13
2022-11-19T05:44:13.550Z,78.46
2022-11-19T05:45:16.175Z,78.10
2022-11-19T05:46:17.691Z,78.14
2022-11-19T05:47:20.205Z,78.15
2022-11-19T05:48:22.652Z,78.05
2022-11-19T05:49:24.181Z,78.19
2022-11-19T05:50:26.786Z,78.08
2022-11-19T05:51:28.424Z,77.88
2022-11-19T05:52:32.468Z,78.14
2022-11-19T05:53:34.052Z,78.12
2022-11-19T05:54:36.690Z,77.68
2022-11-19T05:55:38.211Z,77.77
2022-11-19T05:56:40.777Z,78.05
2022-11-19T05:57:42.653Z,77.95
2022-11-19T05:58:45.129Z,77.71
2022-11-19T05:59:46.643Z,77.99
2022-11-19T06:00:49.177Z,77.70
2022-11-19T06:01:50.746Z,77.72
2022-11-19T06:02:53.315Z,77.86
2022-11-19T06:03:55.302Z,77.79
2022-11-19T06:04:58.310Z,77.79
2022-11-19T06:06:00.258Z,77.61
2022-11-19T06:07:02.754Z,77.59
2022-11-19T06:08:05.908Z,77.68
2022-11-19T06:09:08.685Z,77.57
2022-11-19T06:10:10.840Z,78.03
2022-11-19T06:11:33.680Z,77.61
2022-11-19T06:12:35.309Z,77.81
2022-11-19T06:13:37.786Z,78.05
2022-11-19T06:14:39.333Z,77.44
2022-11-19T06:15:41.800Z,77.70
2022-11-19T06:16:43.551Z,77.50
2022-11-19T06:17:45.996Z,77.29
2022-11-19T06:18:47.487Z,77.72
2022-11-19T06:19:49.963Z,77.72
2022-11-19T06:20:51.562Z,77.29
2022-11-19T06:21:54.676Z,77.58
2022-11-19T06:22:56.455Z,77.41
2022-11-19T06:24:00.335Z,76.96
2022-11-19T06:25:01.923Z,77.02
2022-11-19T06:26:04.418Z,77.50
2022-11-19T06:27:05.946Z,77.14
2022-11-19T06:28:08.401Z,77.36
2022-11-19T06:29:11.329Z,77.28
2022-11-19T06:30:16.035Z,77.24
2022-11-19T06:31:17.894Z,77.46
2022-11-19T06:32:20.482Z,77.27
2022-11-19T06:33:22.011Z,77.29
2022-11-19T06:34:24.521Z,77.23
2022-11-19T06:35:26.005Z,77.11
2022-11-19T06:36:33.719Z,77.39
2022-11-19T06:37:39.912Z,77.14
2022-11-19T06:38:41.976Z,77.47
2022-11-19T06:39:45.784Z,77.13
2022-11-19T06:40:47.499Z,77.33
2022-11-19T06:41:49.974Z,77.22
2022-11-19T06:42:51.497Z,77.23
2022-11-19T06:43:53.965Z,77.28
2022-11-19T06:44:55.498Z,77.13
2022-11-19T06:45:58.038Z,76.62
2022-11-19T06:46:59.577Z,76.65
2022-11-19T06:48:02.125Z,76.99
2022-11-19T06:49:05.626Z,76.66
2022-11-19T06:50:10.012Z,76.88
2022-11-19T06:51:11.617Z,76.63
2022-11-19T06:52:14.099Z,76.66
2022-11-19T06:53:15.791Z,76.91
2022-11-19T06:54:18.279Z,76.73
2022-11-19T06:55:21.287Z,76.26
2022-11-19T06:56:23.791Z,76.27
2022-11-19T06:57:25.377Z,76.46
2022-11-19T06:58:28.506Z,76.19
2022-11-19T06:59:30.090Z,76.50
2022-11-19T07:00:32.919Z,76.36
2022-11-19T07:01:34.592Z,76.32
2022-11-19T07:02:37.686Z,75.99
2022-11-19T07:03:39.188Z,76.39
2022-11-19T07:04:41.725Z,76.24
2022-11-19T07:05:43.379Z,76.14
2022-11-19T07:06:46.090Z,75.76
2022-11-19T07:07:47.613Z,76.22
2022-11-19T07:08:50.140Z,75.98
2022-11-19T07:09:51.653Z,76.03
2022-11-19T07:10:56.439Z,76.05
2022-11-19T07:11:58.087Z,75.79
2022-11-19T07:13:00.710Z,75.65
2022-11-19T07:14:03.773Z,75.59
2022-11-19T07:15:06.893Z,75.84
2022-11-19T07:16:08.655Z,75.68
2022-11-19T07:17:11.144Z,75.77
2022-11-19T07:18:13.022Z,75.39
2022-11-19T07:19:15.550Z,75.52
2022-11-19T07:20:17.584Z,75.60
2022-11-19T07:21:20.141Z,75.49
2022-11-19T07:22:22.636Z,75.38
2022-11-19T07:23:24.164Z,75.29
2022-11-19T07:24:26.660Z,75.62
2022-11-19T07:25:29.212Z,75.33
2022-11-19T07:26:33.240Z,75.46
2022-11-19T07:27:35.789Z,75.44
2022-11-19T07:28:37.283Z,75.06
2022-11-19T07:29:39.819Z,74.98
2022-11-19T07:30:41.305Z,75.28
2022-11-19T07:31:45.727Z,75.12
2022-11-19T07:32:47.331Z,75.13
2022-11-19T07:33:49.903Z,74.86
2022-11-19T07:34:51.445Z,74.99
2022-11-19T07:35:53.907Z,74.79
2022-11-19T07:36:56.419Z,74.79
2022-11-19T07:37:57.935Z,74.60
2022-11-19T07:39:00.409Z,74.63
2022-11-19T07:40:02.197Z,74.28
2022-11-19T07:41:27.169Z,74.27
2022-11-19T07:42:48.590Z,74.61
2022-11-19T07:43:50.432Z,74.59
2022-11-19T07:44:54.953Z,74.13
2022-11-19T07:45:57.742Z,74.52
2022-11-19T07:47:00.412Z,74.03
2022-11-19T07:48:01.938Z,74.26
2022-11-19T07:49:04.643Z,74.48
2022-11-19T07:50:07.077Z,74.34
2022-11-19T07:51:09.615Z,74.64
2022-11-19T07:52:11.091Z,74.46
2022-11-19T07:53:13.532Z,74.30
2022-11-19T07:54:15.191Z,74.27
2022-11-19T07:55:17.905Z,74.48
2022-11-19T07:56:20.281Z,74.55
2022-11-19T07:57:29.665Z,74.47
2022-11-19T07:58:33.055Z,74.45
2022-11-19T07:59:35.588Z,74.35
2022-11-19T08:00:37.138Z,74.40
2022-11-19T08:01:39.826Z,74.07
2022-11-19T08:02:42.351Z,74.24
2022-11-19T08:03:46.097Z,74.30
2022-11-19T08:04:48.611Z,74.17
2022-11-19T08:05:50.176Z,74.00
2022-11-19T08:06:52.652Z,74.06
2022-11-19T08:07:54.178Z,74.16
2022-11-19T08:08:57.586Z,74.05
2022-11-19T08:09:59.091Z,74.23
2022-11-19T08:11:05.064Z,74.01
2022-11-19T08:12:06.976Z,74.04
2022-11-19T08:13:09.439Z,74.21
2022-11-19T08:14:13.193Z,73.89
2022-11-19T08:15:15.916Z,74.05
2022-11-19T08:16:39.090Z,73.95
2022-11-19T08:17:59.373Z,74.33
2022-11-19T08:19:02.352Z,73.99
2022-11-19T08:20:04.923Z,74.26
2022-11-19T08:21:09.403Z,73.90
2022-11-19T08:22:11.269Z,74.26
2022-11-19T08:23:13.746Z,73.92
2022-11-19T08:24:18.119Z,73.78
2022-11-19T08:25:20.934Z,73.66
2022-11-19T08:26:23.714Z,73.45
2022-11-19T08:27:26.346Z,73.44
2022-11-19T08:28:27.994Z,73.58
2022-11-19T08:29:31.889Z,73.48
2022-11-19T08:30:34.541Z,73.42
2022-11-19T08:31:37.169Z,73.88
2022-11-19T08:32:39.647Z,73.33
2022-11-19T08:33:42.201Z,73.57
2022-11-19T08:34:44.726Z,73.41
2022-11-19T08:35:46.419Z,73.67
2022-11-19T08:36:48.967Z,73.69
2022-11-19T08:37:51.300Z,73.80
2022-11-19T08:38:53.789Z,73.22
2022-11-19T08:39:56.269Z,73.31
2022-11-19T08:41:12.831Z,73.69
2022-11-19T08:42:32.749Z,73.66
2022-11-19T08:43:35.266Z,73.37
2022-11-19T08:44:38.349Z,73.47
2022-11-19T08:45:40.886Z,73.52
2022-11-19T08:46:42.467Z,73.42
2022-11-19T08:47:44.974Z,73.41
2022-11-19T08:48:46.631Z,73.26
2022-11-19T08:49:49.143Z,73.26
2022-11-19T08:50:50.657Z,73.51
2022-11-19T08:51:53.559Z,73.40
2022-11-19T08:52:57.019Z,73.47
2022-11-19T08:53:59.512Z,73.15
2022-11-19T08:55:02.063Z,73.09
2022-11-19T08:56:03.770Z,72.89
2022-11-19T08:57:06.528Z,72.99
2022-11-19T08:58:08.230Z,73.19
2022-11-19T08:59:10.744Z,73.24
2022-11-19T09:00:15.257Z,72.72
2022-11-19T09:01:18.597Z,73.02
2022-11-19T09:02:21.123Z,72.82
2022-11-19T09:03:22.760Z,72.89
2022-11-19T09:04:25.313Z,72.73
2022-11-19T09:05:27.328Z,72.57
2022-11-19T09:06:29.881Z,72.79
2022-11-19T09:07:31.460Z,72.91
2022-11-19T09:08:34.550Z,72.62
2022-11-19T09:09:37.018Z,72.56
2022-11-19T09:10:39.104Z,72.95
2022-11-19T09:11:43.072Z,72.56
2022-11-19T09:12:45.750Z,72.60
2022-11-19T09:13:47.321Z,72.27
2022-11-19T09:14:50.396Z,72.63
2022-11-19T09:15:54.255Z,72.54
2022-11-19T09:16:55.788Z,72.03
2022-11-19T09:17:58.331Z,72.33
2022-11-19T09:19:02.072Z,72.25
2022-11-19T09:20:04.753Z,72.11
2022-11-19T09:21:08.401Z,72.16
2022-11-19T09:22:10.911Z,71.95
2022-11-19T09:23:13.979Z,72.01
2022-11-19T09:24:16.562Z,72.16
2022-11-19T09:25:18.071Z,71.99
2022-11-19T09:26:20.906Z,72.15
2022-11-19T09:27:22.466Z,71.76
2022-11-19T09:28:25.013Z,71.79
2022-11-19T09:29:27.560Z,72.05
2022-11-19T09:30:29.376Z,71.98
2022-11-19T09:31:33.432Z,71.99
2022-11-19T09:32:36.007Z,71.74
2022-11-19T09:33:42.003Z,71.77
2022-11-19T09:34:44.649Z,72.05
2022-11-19T09:35:46.258Z,71.96
2022-11-19T09:36:48.748Z,71.65
2022-11-19T09:37:50.283Z,71.94
2022-11-19T09:38:57.915Z,71.87
2022-11-19T09:39:59.583Z,71.97
2022-11-19T09:41:19.866Z,71.58
2022-11-19T09:42:28.871Z,71.84
2022-11-19T09:43:40.205Z,71.84
2022-11-19T09:45:04.560Z,71.64
2022-11-19T09:46:15.173Z,71.52
2022-11-19T09:47:27.103Z,71.50
2022-11-19T09:48:34.902Z,71.55
2022-11-19T09:49:42.333Z,71.20
2022-11-19T09:50:53.529Z,71.07
2022-11-19T09:52:00.350Z,71.17
2022-11-19T09:53:07.121Z,71.29
2022-11-19T09:54:15.347Z,70.86
2022-11-19T09:55:22.017Z,71.17
2022-11-19T09:56:28.618Z,70.98
2022-11-19T09:57:37.643Z,70.60
2022-11-19T09:58:42.146Z,70.66
2022-11-19T09:59:44.779Z,70.39
2022-11-19T10:00:46.469Z,70.45
2022-11-19T10:01:48.987Z,70.53
2022-11-19T10:02:53.356Z,70.40
2022-11-19T10:03:56.120Z,70.47
2022-11-19T10:04:58.550Z,70.13
2022-11-19T10:06:19.566Z,70.12
2022-11-19T10:07:31.828Z,70.29
2022-11-19T10:08:55.961Z,70.29
2022-11-19T10:10:13.004Z,69.79
2022-11-19T10:11:32.626Z,70.04
2022-11-19T10:13:11.510Z,69.69
2022-11-19T10:14:34.797Z,69.92
2022-11-19T10:15:42.581Z,69.82
2022-11-19T10:16:58.018Z,69.71
2022-11-19T10:18:11.323Z,69.70
2022-11-19T10:19:26.109Z,69.48
2022-11-19T10:21:00.444Z,69.48
2022-11-19T10:22:10.316Z,69.56
2022-11-19T10:23:17.415Z,69.62
2022-11-19T10:24:28.892Z,69.40
2022-11-19T10:25:36.793Z,69.51
2022-11-19T10:26:40.815Z,69.44
2022-11-19T10:27:48.938Z,69.27
2022-11-19T10:28:57.011Z,69.69
2022-11-19T10:30:02.737Z,69.23
2022-11-19T10:31:08.549Z,69.64
2022-11-19T10:32:21.860Z,69.38
2022-11-19T10:33:30.640Z,69.19
2022-11-19T10:34:36.995Z,69.19
2022-11-19T10:35:43.627Z,69.36
2022-11-19T10:36:47.950Z,69.68
2022-11-19T10:37:56.902Z,69.60
2022-11-19T10:39:04.547Z,69.41
2022-11-19T10:40:13.252Z,69.50
2022-11-19T10:41:20.323Z,69.26
2022-11-19T10:42:28.545Z,69.07
2022-11-19T10:43:35.649Z,69.39
2022-11-19T10:44:43.537Z,69.39
2022-11-19T10:45:45.054Z,69.23
2022-11-19T10:46:50.024Z,68.81
2022-11-19T10:47:57.961Z,68.98
2022-11-19T10:49:02.466Z,69.12
2022-11-19T10:50:09.873Z,68.95
2022-11-19T10:51:17.659Z,69.08
2022-11-19T10:52:26.034Z,68.99
2022-11-19T10:53:33.272Z,69.23
2022-11-19T10:54:36.843Z,68.78
2022-11-19T10:55:42.678Z,69.19
2022-11-19T10:56:44.461Z,69.03
2022-11-19T10:57:49.604Z,68.76
2022-11-19T10:58:55.998Z,68.64
2022-11-19T10:59:58.991Z,68.85
2022-11-19T11:01:03.559Z,68.77
2022-11-19T11:02:26.481Z,69.04
2022-11-19T11:03:35.537Z,69.12
2022-11-19T11:05:02.883Z,69.23
2022-11-19T11:06:09.772Z,69.20
2022-11-19T11:07:12.469Z,69.38
2022-11-19T11:08:15.290Z,69.31
2022-11-19T11:09:29.989Z,69.42
2022-11-19T11:10:35.930Z,69.38
2022-11-19T11:11:57.217Z,69.15
2022-11-19T11:13:24.679Z,69.19
2022-11-19T11:14:50.295Z,69.38
2022-11-19T11:15:53.331Z,68.97
2022-11-19T11:16:54.988Z,69.25
2022-11-19T11:18:03.031Z,69.40
2022-11-19T11:19:13.527Z,69.17
2022-11-19T11:20:28.257Z,69.37
2022-11-19T11:21:35.589Z,69.01
2022-11-19T11:22:37.632Z,69.08
2022-11-19T11:23:50.717Z,69.35
2022-11-19T11:24:53.372Z,68.84
2022-11-19T11:26:02.822Z,69.26
2022-11-19T11:27:21.693Z,68.87
2022-11-19T11:28:23.951Z,69.07
2022-11-19T11:29:27.710Z,68.86
2022-11-19T11:30:29.500Z,69.18
2022-11-19T11:31:50.048Z,69.15
2022-11-19T11:32:51.692Z,69.21
2022-11-19T11:33:56.697Z,69.54
2022-11-19T11:35:05.099Z,69.62
2022-11-19T11:36:13.503Z,69.35
2022-11-19T11:37:16.212Z,69.81
2022-11-19T11:38:22.118Z,69.82
2022-11-19T11:39:27.882Z,69.92
2022-11-19T11:40:30.423Z,69.78
2022-11-19T11:42:04.916Z,69.67
2022-11-19T11:43:03.734Z,69.53
2022-11-19T11:44:08.508Z,69.47
2022-11-19T11:45:23.492Z,69.95
2022-11-19T11:46:25.046Z,70.02
2022-11-19T11:47:30.279Z,69.89
2022-11-19T11:48:36.959Z,70.18
2022-11-19T11:49:42.340Z,69.91
2022-11-19T11:50:45.746Z,69.98
2022-11-19T11:52:07.213Z,70.11
2022-11-19T11:53:10.593Z,69.83
2022-11-19T11:54:18.742Z,69.86
2022-11-19T11:55:32.443Z,69.86
2022-11-19T11:56:34.016Z,70.16
2022-11-19T11:57:38.124Z,69.72
2022-11-19T11:58:39.638Z,70.00
2022-11-19T11:59:42.403Z,70.22
2022-11-19T12:00:45.643Z,70.47
2022-11-19T12:01:54.598Z,70.27
2022-11-19T12:03:00.507Z,70.26
2022-11-19T12:04:03.825Z,69.97
2022-11-19T12:05:10.785Z,70.10
2022-11-19T12:06:17.554Z,69.84
2022-11-19T12:07:44.837Z,70.07
2022-11-19T12:08:54.144Z,69.39
2022-11-19T12:10:04.163Z,69.47
2022-11-19T12:11:13.871Z,69.67
2022-11-19T12:12:28.330Z,69.35
2022-11-19T12:13:50.115Z,69.60
2022-11-19T12:14:59.641Z,69.78
2022-11-19T12:16:09.731Z,69.42
2022-11-19T12:17:24.658Z,69.62
2022-11-19T12:18:37.371Z,69.42
2022-11-19T12:19:55.495Z,69.61
2022-11-19T12:21:10.238Z,69.64
2022-11-19T12:22:25.396Z,69.77
2022-11-19T12:23:46.306Z,69.66
2022-11-19T12:25:00.273Z,69.39
2022-11-19T12:26:14.912Z,69.70
2022-11-19T12:27:26.098Z,69.37
2022-11-19T12:28:47.168Z,69.46
2022-11-19T12:29:57.976Z,69.01
2022-11-19T12:31:15.288Z,69.38
2022-11-19T12:32:32.449Z,69.03
2022-11-19T12:34:02.014Z,69.10
2022-11-19T12:35:17.677Z,69.07
2022-11-19T12:36:25.300Z,68.67
2022-11-19T12:37:43.300Z,68.77
2022-11-19T12:38:56.976Z,68.89
2022-11-19T12:40:04.544Z,68.83
2022-11-19T12:41:40.877Z,68.63
2022-11-19T12:42:52.311Z,68.34
2022-11-19T12:43:57.767Z,68.63
2022-11-19T12:45:07.252Z,68.46
2022-11-19T12:46:19.615Z,68.47
2022-11-19T12:47:34.402Z,68.58
2022-11-19T12:48:53.202Z,68.44
2022-11-19T12:50:18.604Z,68.26
2022-11-19T12:51:32.552Z,68.13
2022-11-19T12:53:07.392Z,68.23
2022-11-19T12:54:41.458Z,68.08
2022-11-19T12:55:55.141Z,67.88
2022-11-19T12:57:09.910Z,68.07
2022-11-19T12:58:23.048Z,68.06
2022-11-19T12:59:43.776Z,67.85
2022-11-19T13:00:52.391Z,68.08
2022-11-19T13:01:56.289Z,67.67
2022-11-19T13:03:12.166Z,67.65
2022-11-19T13:04:21.232Z,68.17
2022-11-19T13:05:34.232Z,67.75
2022-11-19T13:06:42.504Z,68.13
2022-11-19T13:07:49.316Z,68.12
2022-11-19T13:08:56.063Z,67.65
2022-11-19T13:10:03.467Z,68.04
2022-11-19T13:11:12.446Z,67.79
2022-11-19T13:12:19.228Z,67.80
2022-11-19T13:13:27.275Z,67.98
2022-11-19T13:14:35.688Z,67.56
2022-11-19T13:15:40.934Z,67.78
2022-11-19T13:16:44.029Z,68.00
2022-11-19T13:17:50.966Z,67.63
2022-11-19T13:19:05.999Z,67.67
2022-11-19T13:20:15.111Z,67.64
2022-11-19T13:21:27.520Z,67.59
2022-11-19T13:22:33.011Z,67.56
2022-11-19T13:23:41.078Z,67.68
2022-11-19T13:24:46.701Z,67.92
2022-11-19T13:25:57.361Z,67.43
2022-11-19T13:27:03.419Z,67.50
2022-11-19T13:28:17.764Z,67.52
2022-11-19T13:29:33.529Z,67.36
2022-11-19T13:30:35.824Z,67.41
2022-11-19T13:31:44.583Z,67.58
2022-11-19T13:32:53.419Z,67.22
2022-11-19T13:34:00.053Z,67.00
2022-11-19T13:35:12.579Z,67.37
2022-11-19T13:36:20.652Z,67.12
2022-11-19T13:37:35.341Z,67.10
2022-11-19T13:38:44.801Z,66.66
2022-11-19T13:39:50.847Z,66.68
2022-11-19T13:41:02.672Z,66.69
2022-11-19T13:42:37.416Z,66.61
2022-11-19T13:43:58.358Z,66.96
2022-11-19T13:45:00.199Z,66.55
2022-11-19T13:46:12.183Z,66.66
2022-11-19T13:47:20.077Z,66.51
2022-11-19T13:48:26.672Z,66.52
2022-11-19T13:49:34.284Z,66.89
2022-11-19T13:50:41.618Z,66.32
2022-11-19T13:51:46.577Z,66.41
2022-11-19T13:52:54.999Z,66.35
2022-11-19T13:54:03.027Z,66.20
2022-11-19T13:55:27.467Z,66.01
2022-11-19T13:56:42.494Z,66.10
2022-11-19T13:57:45.301Z,66.16
2022-11-19T13:58:50.171Z,66.12
2022-11-19T13:59:58.366Z,65.88
2022-11-19T14:01:17.333Z,65.81
2022-11-19T14:02:41.858Z,65.81
2022-11-19T14:04:00.149Z,65.84
2022-11-19T14:05:50.372Z,65.71
2022-11-19T14:07:13.426Z,65.45
2022-11-19T14:08:26.568Z,65.43
2022-11-19T14:09:37.664Z,65.33
2022-11-19T14:10:46.878Z,65.36
2022-11-19T14:12:08.028Z,65.32
2022-11-19T14:13:42.959Z,65.26
2022-11-19T14:15:17.422Z,65.07
2022-11-19T14:16:46.270Z,65.29
2022-11-19T14:18:29.646Z,65.14